sensor_id;sensor_type;location;lat;lon;timestamp;P1;durP1;ratioP1;P2;durP2;ratioP2
67749;SDS011;54550;48.838;8.828;2023-08-20T00:00:17;21.60;;;15.27;;
67749;SDS011;54550;48.838;8.828;2023-08-20T00:02:43;21.10;;;14.53;;
67749;SDS011;54550;48.838;8.828;2023-08-20T00:05:11;18.27;;;13.90;;
67749;SDS011;54550;48.838;8.828;2023-08-20T00:07:38;20.10;;;13.30;;
67749;SDS011;54550;48.838;8.828;2023-08-20T00:10:04;19.17;;;13.07;;
67749;SDS011;54550;48.838;8.828;2023-08-20T00:12:30;20.40;;;14.60;;
67749;SDS011;54550;48.838;8.828;2023-08-20T00:15:03;25.83;;;12.80;;
67749;SDS011;54550;48.838;8.828;2023-08-20T00:17:35;17.83;;;13.77;;
67749;SDS011;54550;48.838;8.828;2023-08-20T00:20:03;20.83;;;12.40;;
67749;SDS011;54550;48.838;8.828;2023-08-20T00:22:41;15.83;;;11.83;;
67749;SDS011;54550;48.838;8.828;2023-08-20T00:25:10;20.33;;;13.17;;
67749;SDS011;54550;48.838;8.828;2023-08-20T00:27:36;30.30;;;14.73;;
67749;SDS011;54550;48.838;8.828;2023-08-20T00:30:03;21.10;;;13.67;;
67749;SDS011;54550;48.838;8.828;2023-08-20T00:32:29;20.97;;;13.27;;
67749;SDS011;54550;48.838;8.828;2023-08-20T00:34:54;15.10;;;11.50;;
67749;SDS011;54550;48.838;8.828;2023-08-20T00:37:20;18.20;;;13.50;;
67749;SDS011;54550;48.838;8.828;2023-08-20T00:39:46;17.43;;;12.67;;
67749;SDS011;54550;48.838;8.828;2023-08-20T00:42:12;17.70;;;12.87;;
67749;SDS011;54550;48.838;8.828;2023-08-20T00:44:41;18.33;;;12.63;;
67749;SDS011;54550;48.838;8.828;2023-08-20T00:47:09;19.23;;;12.47;;
67749;SDS011;54550;48.838;8.828;2023-08-20T00:49:35;20.20;;;13.53;;
67749;SDS011;54550;48.838;8.828;2023-08-20T00:52:01;18.40;;;12.53;;
67749;SDS011;54550;48.838;8.828;2023-08-20T00:54:28;26.23;;;16.10;;
67749;SDS011;54550;48.838;8.828;2023-08-20T00:56:54;18.20;;;14.40;;
67749;SDS011;54550;48.838;8.828;2023-08-20T00:59:20;21.50;;;14.63;;
67749;SDS011;54550;48.838;8.828;2023-08-20T01:01:45;23.73;;;15.63;;
67749;SDS011;54550;48.838;8.828;2023-08-20T01:04:11;18.27;;;13.30;;
67749;SDS011;54550;48.838;8.828;2023-08-20T01:11:59;18.80;;;12.63;;
67749;SDS011;54550;48.838;8.828;2023-08-20T01:14:27;16.47;;;12.40;;
67749;SDS011;54550;48.838;8.828;2023-08-20T01:16:52;17.67;;;13.20;;
67749;SDS011;54550;48.838;8.828;2023-08-20T01:19:18;17.50;;;12.27;;
67749;SDS011;54550;48.838;8.828;2023-08-20T01:27:38;22.43;;;13.37;;
67749;SDS011;54550;48.838;8.828;2023-08-20T01:30:06;25.70;;;14.87;;
67749;SDS011;54550;48.838;8.828;2023-08-20T01:32:36;21.70;;;15.77;;
67749;SDS011;54550;48.838;8.828;2023-08-20T01:35:03;19.70;;;14.20;;
67749;SDS011;54550;48.838;8.828;2023-08-20T01:37:29;21.80;;;16.23;;
67749;SDS011;54550;48.838;8.828;2023-08-20T01:39:55;22.33;;;16.50;;
67749;SDS011;54550;48.838;8.828;2023-08-20T01:42:20;20.63;;;13.40;;
67749;SDS011;54550;48.838;8.828;2023-08-20T01:44:46;25.00;;;12.63;;
67749;SDS011;54550;48.838;8.828;2023-08-20T01:47:11;25.13;;;14.37;;
67749;SDS011;54550;48.838;8.828;2023-08-20T01:49:37;19.50;;;14.23;;
67749;SDS011;54550;48.838;8.828;2023-08-20T01:52:02;19.83;;;13.80;;
67749;SDS011;54550;48.838;8.828;2023-08-20T01:54:28;16.67;;;14.20;;
67749;SDS011;54550;48.838;8.828;2023-08-20T01:56:54;20.40;;;12.40;;
67749;SDS011;54550;48.838;8.828;2023-08-20T01:59:21;27.00;;;14.00;;
67749;SDS011;54550;48.838;8.828;2023-08-20T02:01:48;23.07;;;14.20;;
67749;SDS011;54550;48.838;8.828;2023-08-20T02:04:14;23.37;;;15.23;;
67749;SDS011;54550;48.838;8.828;2023-08-20T02:06:40;18.30;;;13.80;;
67749;SDS011;54550;48.838;8.828;2023-08-20T02:09:05;19.00;;;13.87;;
67749;SDS011;54550;48.838;8.828;2023-08-20T02:11:31;23.40;;;16.63;;
67749;SDS011;54550;48.838;8.828;2023-08-20T02:14:00;29.13;;;16.37;;
67749;SDS011;54550;48.838;8.828;2023-08-20T02:16:26;28.47;;;17.10;;
67749;SDS011;54550;48.838;8.828;2023-08-20T02:18:52;23.80;;;16.70;;
67749;SDS011;54550;48.838;8.828;2023-08-20T02:21:17;26.37;;;17.50;;
67749;SDS011;54550;48.838;8.828;2023-08-20T02:23:43;27.30;;;19.70;;
67749;SDS011;54550;48.838;8.828;2023-08-20T02:26:09;29.83;;;17.97;;
67749;SDS011;54550;48.838;8.828;2023-08-20T02:28:34;30.23;;;18.70;;
67749;SDS011;54550;48.838;8.828;2023-08-20T02:31:03;35.87;;;19.30;;
67749;SDS011;54550;48.838;8.828;2023-08-20T02:33:29;30.50;;;18.90;;
67749;SDS011;54550;48.838;8.828;2023-08-20T02:35:55;30.80;;;18.17;;
67749;SDS011;54550;48.838;8.828;2023-08-20T02:38:25;29.60;;;19.10;;
67749;SDS011;54550;48.838;8.828;2023-08-20T02:40:50;26.70;;;17.33;;
67749;SDS011;54550;48.838;8.828;2023-08-20T02:43:16;21.83;;;16.63;;
67749;SDS011;54550;48.838;8.828;2023-08-20T02:45:43;33.03;;;18.60;;
67749;SDS011;54550;48.838;8.828;2023-08-20T02:48:08;31.83;;;19.07;;
67749;SDS011;54550;48.838;8.828;2023-08-20T02:50:35;27.47;;;18.67;;
67749;SDS011;54550;48.838;8.828;2023-08-20T02:53:00;27.70;;;16.77;;
67749;SDS011;54550;48.838;8.828;2023-08-20T02:55:26;27.70;;;18.63;;
67749;SDS011;54550;48.838;8.828;2023-08-20T02:57:51;28.93;;;16.63;;
67749;SDS011;54550;48.838;8.828;2023-08-20T03:00:17;27.07;;;16.67;;
67749;SDS011;54550;48.838;8.828;2023-08-20T03:02:42;31.10;;;18.40;;
67749;SDS011;54550;48.838;8.828;2023-08-20T03:05:09;26.83;;;17.87;;
67749;SDS011;54550;48.838;8.828;2023-08-20T03:07:35;31.90;;;19.57;;
67749;SDS011;54550;48.838;8.828;2023-08-20T03:10:00;28.77;;;19.73;;
67749;SDS011;54550;48.838;8.828;2023-08-20T03:12:27;30.60;;;18.83;;
67749;SDS011;54550;48.838;8.828;2023-08-20T03:14:53;29.47;;;17.60;;
67749;SDS011;54550;48.838;8.828;2023-08-20T03:17:19;27.30;;;20.40;;
67749;SDS011;54550;48.838;8.828;2023-08-20T03:19:55;28.90;;;19.60;;
67749;SDS011;54550;48.838;8.828;2023-08-20T03:22:24;27.97;;;18.87;;
67749;SDS011;54550;48.838;8.828;2023-08-20T03:24:51;29.90;;;19.47;;
67749;SDS011;54550;48.838;8.828;2023-08-20T03:27:17;26.53;;;18.17;;
67749;SDS011;54550;48.838;8.828;2023-08-20T03:29:43;36.00;;;16.90;;
67749;SDS011;54550;48.838;8.828;2023-08-20T03:32:09;34.03;;;18.83;;
67749;SDS011;54550;48.838;8.828;2023-08-20T03:34:36;30.83;;;17.97;;
67749;SDS011;54550;48.838;8.828;2023-08-20T03:37:01;28.33;;;19.20;;
67749;SDS011;54550;48.838;8.828;2023-08-20T03:39:28;30.20;;;19.23;;
67749;SDS011;54550;48.838;8.828;2023-08-20T03:41:53;31.27;;;19.60;;
67749;SDS011;54550;48.838;8.828;2023-08-20T03:44:19;40.90;;;23.50;;
67749;SDS011;54550;48.838;8.828;2023-08-20T03:46:44;34.47;;;20.77;;
67749;SDS011;54550;48.838;8.828;2023-08-20T03:49:10;38.97;;;20.87;;
67749;SDS011;54550;48.838;8.828;2023-08-20T03:51:36;33.87;;;20.57;;
67749;SDS011;54550;48.838;8.828;2023-08-20T03:54:02;39.57;;;21.57;;
67749;SDS011;54550;48.838;8.828;2023-08-20T03:56:27;37.90;;;23.87;;
67749;SDS011;54550;48.838;8.828;2023-08-20T03:58:53;37.70;;;22.40;;
67749;SDS011;54550;48.838;8.828;2023-08-20T04:01:19;36.43;;;22.10;;
67749;SDS011;54550;48.838;8.828;2023-08-20T04:03:45;35.77;;;20.17;;
67749;SDS011;54550;48.838;8.828;2023-08-20T04:06:12;35.10;;;21.60;;
67749;SDS011;54550;48.838;8.828;2023-08-20T04:08:37;35.40;;;21.00;;
67749;SDS011;54550;48.838;8.828;2023-08-20T04:11:03;35.53;;;19.40;;
67749;SDS011;54550;48.838;8.828;2023-08-20T04:13:29;32.77;;;19.63;;
67749;SDS011;54550;48.838;8.828;2023-08-20T04:15:55;32.63;;;17.33;;
67749;SDS011;54550;48.838;8.828;2023-08-20T04:18:20;27.90;;;18.07;;
67749;SDS011;54550;48.838;8.828;2023-08-20T04:20:47;32.23;;;18.00;;
67749;SDS011;54550;48.838;8.828;2023-08-20T04:23:12;33.47;;;18.20;;
67749;SDS011;54550;48.838;8.828;2023-08-20T04:25:38;35.77;;;19.33;;
67749;SDS011;54550;48.838;8.828;2023-08-20T04:28:05;27.13;;;17.60;;
67749;SDS011;54550;48.838;8.828;2023-08-20T04:30:30;29.60;;;19.60;;
67749;SDS011;54550;48.838;8.828;2023-08-20T04:32:56;33.50;;;20.50;;
67749;SDS011;54550;48.838;8.828;2023-08-20T04:35:21;32.53;;;18.80;;
67749;SDS011;54550;48.838;8.828;2023-08-20T04:37:47;42.30;;;22.53;;
67749;SDS011;54550;48.838;8.828;2023-08-20T04:40:12;31.70;;;19.27;;
67749;SDS011;54550;48.838;8.828;2023-08-20T04:42:38;32.83;;;19.40;;
67749;SDS011;54550;48.838;8.828;2023-08-20T04:45:04;44.30;;;19.67;;
67749;SDS011;54550;48.838;8.828;2023-08-20T04:47:29;33.97;;;18.67;;
67749;SDS011;54550;48.838;8.828;2023-08-20T04:49:55;43.40;;;21.60;;
67749;SDS011;54550;48.838;8.828;2023-08-20T04:52:20;29.53;;;18.47;;
67749;SDS011;54550;48.838;8.828;2023-08-20T04:54:47;29.63;;;19.03;;
67749;SDS011;54550;48.838;8.828;2023-08-20T04:57:12;23.93;;;15.50;;
67749;SDS011;54550;48.838;8.828;2023-08-20T04:59:38;25.47;;;16.77;;
67749;SDS011;54550;48.838;8.828;2023-08-20T05:02:03;29.27;;;16.90;;
67749;SDS011;54550;48.838;8.828;2023-08-20T05:04:29;25.40;;;16.60;;
67749;SDS011;54550;48.838;8.828;2023-08-20T05:06:54;29.93;;;18.83;;
67749;SDS011;54550;48.838;8.828;2023-08-20T05:09:20;28.40;;;18.73;;
67749;SDS011;54550;48.838;8.828;2023-08-20T05:11:46;29.37;;;18.83;;
67749;SDS011;54550;48.838;8.828;2023-08-20T05:14:12;34.70;;;19.03;;
67749;SDS011;54550;48.838;8.828;2023-08-20T05:16:37;28.07;;;17.67;;
67749;SDS011;54550;48.838;8.828;2023-08-20T05:19:03;35.87;;;18.30;;
67749;SDS011;54550;48.838;8.828;2023-08-20T05:21:28;22.60;;;17.67;;
67749;SDS011;54550;48.838;8.828;2023-08-20T05:23:54;24.70;;;17.60;;
67749;SDS011;54550;48.838;8.828;2023-08-20T05:26:21;27.07;;;19.90;;
67749;SDS011;54550;48.838;8.828;2023-08-20T05:28:47;20.30;;;16.50;;
67749;SDS011;54550;48.838;8.828;2023-08-20T05:31:12;17.23;;;12.60;;
67749;SDS011;54550;48.838;8.828;2023-08-20T05:33:38;15.50;;;11.20;;
67749;SDS011;54550;48.838;8.828;2023-08-20T05:36:04;13.90;;;9.20;;
67749;SDS011;54550;48.838;8.828;2023-08-20T05:38:29;10.63;;;8.20;;
67749;SDS011;54550;48.838;8.828;2023-08-20T05:40:55;19.13;;;8.53;;
67749;SDS011;54550;48.838;8.828;2023-08-20T05:43:21;11.67;;;7.77;;
67749;SDS011;54550;48.838;8.828;2023-08-20T05:45:46;11.10;;;6.50;;
67749;SDS011;54550;48.838;8.828;2023-08-20T05:48:12;8.50;;;6.30;;
67749;SDS011;54550;48.838;8.828;2023-08-20T05:50:37;11.97;;;7.10;;
67749;SDS011;54550;48.838;8.828;2023-08-20T05:53:03;15.67;;;6.50;;
67749;SDS011;54550;48.838;8.828;2023-08-20T05:55:28;7.37;;;6.67;;
67749;SDS011;54550;48.838;8.828;2023-08-20T05:57:54;12.27;;;6.90;;
67749;SDS011;54550;48.838;8.828;2023-08-20T06:00:19;9.00;;;6.17;;
67749;SDS011;54550;48.838;8.828;2023-08-20T06:02:45;12.73;;;6.87;;
67749;SDS011;54550;48.838;8.828;2023-08-20T06:05:10;11.23;;;6.30;;
67749;SDS011;54550;48.838;8.828;2023-08-20T06:07:36;7.10;;;6.20;;
67749;SDS011;54550;48.838;8.828;2023-08-20T06:10:02;13.60;;;6.70;;
67749;SDS011;54550;48.838;8.828;2023-08-20T06:12:27;8.60;;;7.00;;
67749;SDS011;54550;48.838;8.828;2023-08-20T06:14:53;12.93;;;6.30;;
67749;SDS011;54550;48.838;8.828;2023-08-20T06:17:19;6.57;;;5.60;;
67749;SDS011;54550;48.838;8.828;2023-08-20T06:19:44;8.83;;;6.90;;
67749;SDS011;54550;48.838;8.828;2023-08-20T06:22:10;8.83;;;6.90;;
67749;SDS011;54550;48.838;8.828;2023-08-20T06:24:36;15.50;;;7.70;;
67749;SDS011;54550;48.838;8.828;2023-08-20T06:27:01;8.03;;;6.67;;
67749;SDS011;54550;48.838;8.828;2023-08-20T06:29:27;11.37;;;6.53;;
67749;SDS011;54550;48.838;8.828;2023-08-20T06:31:52;8.50;;;6.10;;
67749;SDS011;54550;48.838;8.828;2023-08-20T06:34:18;13.23;;;6.07;;
67749;SDS011;54550;48.838;8.828;2023-08-20T06:36:43;14.20;;;5.90;;
67749;SDS011;54550;48.838;8.828;2023-08-20T06:39:09;6.70;;;6.00;;
67749;SDS011;54550;48.838;8.828;2023-08-20T06:41:35;6.50;;;5.50;;
67749;SDS011;54550;48.838;8.828;2023-08-20T06:44:01;8.50;;;6.93;;
67749;SDS011;54550;48.838;8.828;2023-08-20T06:46:27;9.50;;;7.07;;
67749;SDS011;54550;48.838;8.828;2023-08-20T06:48:53;10.07;;;6.93;;
67749;SDS011;54550;48.838;8.828;2023-08-20T06:51:19;8.73;;;7.13;;
67749;SDS011;54550;48.838;8.828;2023-08-20T06:53:46;9.90;;;6.60;;
67749;SDS011;54550;48.838;8.828;2023-08-20T06:56:11;10.83;;;5.40;;
67749;SDS011;54550;48.838;8.828;2023-08-20T06:58:38;5.57;;;4.90;;
67749;SDS011;54550;48.838;8.828;2023-08-20T07:01:05;7.73;;;5.03;;
67749;SDS011;54550;48.838;8.828;2023-08-20T07:03:34;10.50;;;6.57;;
67749;SDS011;54550;48.838;8.828;2023-08-20T07:06:07;13.17;;;6.13;;
67749;SDS011;54550;48.838;8.828;2023-08-20T07:08:39;11.73;;;6.07;;
67749;SDS011;54550;48.838;8.828;2023-08-20T07:11:05;7.73;;;4.97;;
67749;SDS011;54550;48.838;8.828;2023-08-20T07:13:31;8.77;;;4.97;;
67749;SDS011;54550;48.838;8.828;2023-08-20T07:15:57;11.00;;;5.43;;
67749;SDS011;54550;48.838;8.828;2023-08-20T07:18:22;6.57;;;5.20;;
67749;SDS011;54550;48.838;8.828;2023-08-20T07:20:49;9.53;;;5.20;;
67749;SDS011;54550;48.838;8.828;2023-08-20T07:23:15;7.57;;;4.50;;
67749;SDS011;54550;48.838;8.828;2023-08-20T07:25:41;12.17;;;5.70;;
67749;SDS011;54550;48.838;8.828;2023-08-20T07:28:07;12.13;;;5.20;;
67749;SDS011;54550;48.838;8.828;2023-08-20T07:30:33;10.03;;;5.17;;
67749;SDS011;54550;48.838;8.828;2023-08-20T07:32:59;12.33;;;4.73;;
67749;SDS011;54550;48.838;8.828;2023-08-20T07:35:25;4.80;;;4.30;;
67749;SDS011;54550;48.838;8.828;2023-08-20T07:37:51;9.90;;;4.50;;
67749;SDS011;54550;48.838;8.828;2023-08-20T07:40:17;7.00;;;4.07;;
67749;SDS011;54550;48.838;8.828;2023-08-20T07:42:43;9.30;;;5.50;;
67749;SDS011;54550;48.838;8.828;2023-08-20T07:45:08;13.87;;;5.63;;
67749;SDS011;54550;48.838;8.828;2023-08-20T07:47:37;6.50;;;4.60;;
67749;SDS011;54550;48.838;8.828;2023-08-20T07:50:04;7.53;;;5.30;;
67749;SDS011;54550;48.838;8.828;2023-08-20T07:52:31;13.20;;;5.07;;
67749;SDS011;54550;48.838;8.828;2023-08-20T07:54:57;15.03;;;6.30;;
67749;SDS011;54550;48.838;8.828;2023-08-20T07:57:22;8.30;;;6.03;;
67749;SDS011;54550;48.838;8.828;2023-08-20T07:59:48;13.30;;;5.90;;
67749;SDS011;54550;48.838;8.828;2023-08-20T08:02:15;5.97;;;5.10;;
67749;SDS011;54550;48.838;8.828;2023-08-20T08:04:41;9.87;;;5.80;;
67749;SDS011;54550;48.838;8.828;2023-08-20T08:07:07;9.97;;;4.50;;
67749;SDS011;54550;48.838;8.828;2023-08-20T08:09:33;11.97;;;4.70;;
67749;SDS011;54550;48.838;8.828;2023-08-20T08:11:59;13.13;;;5.50;;
67749;SDS011;54550;48.838;8.828;2023-08-20T08:14:25;8.03;;;5.43;;
67749;SDS011;54550;48.838;8.828;2023-08-20T08:16:51;11.83;;;5.73;;
67749;SDS011;54550;48.838;8.828;2023-08-20T08:19:17;6.03;;;5.43;;
67749;SDS011;54550;48.838;8.828;2023-08-20T08:21:43;7.87;;;5.47;;
67749;SDS011;54550;48.838;8.828;2023-08-20T08:24:10;9.63;;;5.23;;
67749;SDS011;54550;48.838;8.828;2023-08-20T08:26:36;13.60;;;5.47;;
67749;SDS011;54550;48.838;8.828;2023-08-20T08:29:05;9.40;;;6.17;;
67749;SDS011;54550;48.838;8.828;2023-08-20T08:31:33;8.10;;;4.70;;
67749;SDS011;54550;48.838;8.828;2023-08-20T08:33:58;12.80;;;5.63;;
67749;SDS011;54550;48.838;8.828;2023-08-20T08:36:24;10.40;;;5.30;;
67749;SDS011;54550;48.838;8.828;2023-08-20T08:38:50;7.13;;;4.50;;
67749;SDS011;54550;48.838;8.828;2023-08-20T08:41:16;6.10;;;4.60;;
67749;SDS011;54550;48.838;8.828;2023-08-20T08:43:43;10.47;;;4.80;;
67749;SDS011;54550;48.838;8.828;2023-08-20T08:46:14;8.30;;;6.03;;
67749;SDS011;54550;48.838;8.828;2023-08-20T08:48:42;11.90;;;4.07;;
67749;SDS011;54550;48.838;8.828;2023-08-20T08:51:08;6.53;;;4.50;;
67749;SDS011;54550;48.838;8.828;2023-08-20T08:53:35;9.87;;;5.40;;
67749;SDS011;54550;48.838;8.828;2023-08-20T08:56:01;7.20;;;5.97;;
67749;SDS011;54550;48.838;8.828;2023-08-20T08:58:27;12.47;;;5.40;;
67749;SDS011;54550;48.838;8.828;2023-08-20T09:00:54;16.03;;;5.40;;
67749;SDS011;54550;48.838;8.828;2023-08-20T09:03:20;5.40;;;4.40;;
67749;SDS011;54550;48.838;8.828;2023-08-20T09:05:49;8.87;;;4.90;;
67749;SDS011;54550;48.838;8.828;2023-08-20T09:08:26;9.60;;;5.00;;
67749;SDS011;54550;48.838;8.828;2023-08-20T09:10:55;7.07;;;4.60;;
67749;SDS011;54550;48.838;8.828;2023-08-20T09:13:24;6.87;;;5.00;;
67749;SDS011;54550;48.838;8.828;2023-08-20T09:15:57;9.70;;;5.07;;
67749;SDS011;54550;48.838;8.828;2023-08-20T09:18:22;12.33;;;4.50;;
67749;SDS011;54550;48.838;8.828;2023-08-20T09:20:48;10.67;;;5.27;;
67749;SDS011;54550;48.838;8.828;2023-08-20T09:23:17;8.80;;;5.23;;
67749;SDS011;54550;48.838;8.828;2023-08-20T09:25:43;12.47;;;6.37;;
67749;SDS011;54550;48.838;8.828;2023-08-20T09:28:08;13.17;;;5.13;;
67749;SDS011;54550;48.838;8.828;2023-08-20T09:30:34;5.90;;;4.20;;
67749;SDS011;54550;48.838;8.828;2023-08-20T09:33:12;6.43;;;4.87;;
67749;SDS011;54550;48.838;8.828;2023-08-20T09:35:48;6.73;;;4.30;;
67749;SDS011;54550;48.838;8.828;2023-08-20T09:38:14;4.73;;;4.23;;
67749;SDS011;54550;48.838;8.828;2023-08-20T09:40:40;6.30;;;4.60;;
67749;SDS011;54550;48.838;8.828;2023-08-20T09:43:05;7.60;;;4.67;;
67749;SDS011;54550;48.838;8.828;2023-08-20T09:45:33;7.60;;;4.60;;
67749;SDS011;54550;48.838;8.828;2023-08-20T09:48:01;4.70;;;4.20;;
67749;SDS011;54550;48.838;8.828;2023-08-20T09:50:32;7.50;;;4.70;;
67749;SDS011;54550;48.838;8.828;2023-08-20T09:53:45;5.30;;;4.10;;
67749;SDS011;54550;48.838;8.828;2023-08-20T09:55:57;8.53;;;5.60;;
67749;SDS011;54550;48.838;8.828;2023-08-20T09:58:29;6.93;;;4.67;;
67749;SDS011;54550;48.838;8.828;2023-08-20T10:00:55;6.70;;;4.40;;
67749;SDS011;54550;48.838;8.828;2023-08-20T10:03:22;5.90;;;3.90;;
67749;SDS011;54550;48.838;8.828;2023-08-20T10:05:48;6.53;;;5.10;;
67749;SDS011;54550;48.838;8.828;2023-08-20T10:08:15;15.47;;;4.33;;
67749;SDS011;54550;48.838;8.828;2023-08-20T10:10:41;6.50;;;4.10;;
67749;SDS011;54550;48.838;8.828;2023-08-20T10:13:07;11.40;;;5.00;;
67749;SDS011;54550;48.838;8.828;2023-08-20T10:15:33;4.13;;;3.73;;
67749;SDS011;54550;48.838;8.828;2023-08-20T10:18:01;9.40;;;3.40;;
67749;SDS011;54550;48.838;8.828;2023-08-20T10:20:28;9.27;;;4.03;;
67749;SDS011;54550;48.838;8.828;2023-08-20T10:22:57;10.90;;;4.80;;
67749;SDS011;54550;48.838;8.828;2023-08-20T10:25:26;14.77;;;4.87;;
67749;SDS011;54550;48.838;8.828;2023-08-20T10:27:51;7.20;;;4.40;;
67749;SDS011;54550;48.838;8.828;2023-08-20T10:30:19;174.93;;;159.23;;
67749;SDS011;54550;48.838;8.828;2023-08-20T10:32:54;9.03;;;3.93;;
67749;SDS011;54550;48.838;8.828;2023-08-20T10:35:28;964.80;;;880.07;;
67749;SDS011;54550;48.838;8.828;2023-08-20T10:38:15;1009.73;;;919.97;;
67749;SDS011;54550;48.838;8.828;2023-08-20T10:40:52;901.53;;;822.07;;
67749;SDS011;54550;48.838;8.828;2023-08-20T10:51:37;6.20;;;4.03;;
67749;SDS011;54550;48.838;8.828;2023-08-20T10:54:05;6.40;;;3.97;;
67749;SDS011;54550;48.838;8.828;2023-08-20T10:59:08;6.67;;;4.60;;
67749;SDS011;54550;48.838;8.828;2023-08-20T11:01:45;4.23;;;3.83;;
67749;SDS011;54550;48.838;8.828;2023-08-20T11:04:13;4.70;;;3.80;;
67749;SDS011;54550;48.838;8.828;2023-08-20T11:06:40;6.73;;;4.33;;
67749;SDS011;54550;48.838;8.828;2023-08-20T11:09:06;8.70;;;4.20;;
67749;SDS011;54550;48.838;8.828;2023-08-20T11:11:35;11.67;;;4.20;;
67749;SDS011;54550;48.838;8.828;2023-08-20T11:14:04;9.33;;;4.60;;
67749;SDS011;54550;48.838;8.828;2023-08-20T11:16:32;5.07;;;4.13;;
67749;SDS011;54550;48.838;8.828;2023-08-20T11:18:59;9.97;;;4.20;;
67749;SDS011;54550;48.838;8.828;2023-08-20T11:21:24;5.07;;;3.40;;
67749;SDS011;54550;48.838;8.828;2023-08-20T11:23:50;5.33;;;4.40;;
67749;SDS011;54550;48.838;8.828;2023-08-20T11:26:17;4.27;;;3.30;;
67749;SDS011;54550;48.838;8.828;2023-08-20T11:28:46;5.60;;;3.77;;
67749;SDS011;54550;48.838;8.828;2023-08-20T11:31:12;5.53;;;3.70;;
67749;SDS011;54550;48.838;8.828;2023-08-20T11:33:38;5.03;;;4.00;;
67749;SDS011;54550;48.838;8.828;2023-08-20T11:36:04;4.20;;;3.30;;
67749;SDS011;54550;48.838;8.828;2023-08-20T11:38:30;702.13;;;639.43;;
67749;SDS011;54550;48.838;8.828;2023-08-20T11:40:57;97.33;;;87.87;;
67749;SDS011;54550;48.838;8.828;2023-08-20T11:43:24;12.80;;;4.40;;
67749;SDS011;54550;48.838;8.828;2023-08-20T11:45:52;454.27;;;414.73;;
67749;SDS011;54550;48.838;8.828;2023-08-20T11:48:19;905.20;;;823.63;;
67749;SDS011;54550;48.838;8.828;2023-08-20T11:50:46;792.57;;;721.63;;
67749;SDS011;54550;48.838;8.828;2023-08-20T11:53:12;1055.63;;;961.23;;
67749;SDS011;54550;48.838;8.828;2023-08-20T11:55:39;6.43;;;3.90;;
67749;SDS011;54550;48.838;8.828;2023-08-20T11:58:08;9.30;;;3.50;;
67749;SDS011;54550;48.838;8.828;2023-08-20T12:00:36;4.77;;;4.23;;
67749;SDS011;54550;48.838;8.828;2023-08-20T12:03:01;4.83;;;3.20;;
67749;SDS011;54550;48.838;8.828;2023-08-20T12:05:29;7.23;;;3.60;;
67749;SDS011;54550;48.838;8.828;2023-08-20T12:07:58;5.17;;;3.50;;
67749;SDS011;54550;48.838;8.828;2023-08-20T12:10:28;8.13;;;3.57;;
67749;SDS011;54550;48.838;8.828;2023-08-20T12:12:55;8.60;;;4.90;;
67749;SDS011;54550;48.838;8.828;2023-08-20T12:15:21;5.57;;;3.70;;
67749;SDS011;54550;48.838;8.828;2023-08-20T12:17:57;10.40;;;4.23;;
67749;SDS011;54550;48.838;8.828;2023-08-20T12:20:26;7.60;;;3.50;;
67749;SDS011;54550;48.838;8.828;2023-08-20T12:22:52;20.80;;;4.50;;
67749;SDS011;54550;48.838;8.828;2023-08-20T12:25:18;5.57;;;4.03;;
67749;SDS011;54550;48.838;8.828;2023-08-20T12:27:44;5.10;;;4.03;;
67749;SDS011;54550;48.838;8.828;2023-08-20T12:30:10;10.13;;;4.00;;
67749;SDS011;54550;48.838;8.828;2023-08-20T12:32:36;6.10;;;3.93;;
67749;SDS011;54550;48.838;8.828;2023-08-20T12:35:01;7.20;;;4.27;;
67749;SDS011;54550;48.838;8.828;2023-08-20T12:37:27;4.47;;;3.70;;
67749;SDS011;54550;48.838;8.828;2023-08-20T12:39:53;9.00;;;3.30;;
67749;SDS011;54550;48.838;8.828;2023-08-20T12:42:18;5.40;;;4.43;;
67749;SDS011;54550;48.838;8.828;2023-08-20T12:44:44;6.40;;;3.77;;
67749;SDS011;54550;48.838;8.828;2023-08-20T12:47:10;7.73;;;4.13;;
67749;SDS011;54550;48.838;8.828;2023-08-20T12:49:35;6.70;;;4.10;;
67749;SDS011;54550;48.838;8.828;2023-08-20T12:52:01;6.30;;;4.10;;
67749;SDS011;54550;48.838;8.828;2023-08-20T12:54:26;7.67;;;3.67;;
67749;SDS011;54550;48.838;8.828;2023-08-20T12:56:52;11.63;;;3.57;;
67749;SDS011;54550;48.838;8.828;2023-08-20T12:59:17;9.87;;;3.60;;
67749;SDS011;54550;48.838;8.828;2023-08-20T13:01:43;4.80;;;4.30;;
67749;SDS011;54550;48.838;8.828;2023-08-20T13:04:09;113.33;;;104.50;;
67749;SDS011;54550;48.838;8.828;2023-08-20T13:06:36;785.27;;;713.80;;
67749;SDS011;54550;48.838;8.828;2023-08-20T13:09:02;336.40;;;310.43;;
67749;SDS011;54550;48.838;8.828;2023-08-20T13:11:28;599.77;;;545.27;;
67749;SDS011;54550;48.838;8.828;2023-08-20T13:13:56;5.70;;;4.13;;
67749;SDS011;54550;48.838;8.828;2023-08-20T13:16:22;511.60;;;466.87;;
67749;SDS011;54550;48.838;8.828;2023-08-20T13:18:48;670.93;;;610.07;;
67749;SDS011;54550;48.838;8.828;2023-08-20T13:21:14;864.83;;;785.97;;
67749;SDS011;54550;48.838;8.828;2023-08-20T13:23:40;1132.27;;;999.90;;
67749;SDS011;54550;48.838;8.828;2023-08-20T13:26:06;1275.53;;;999.90;;
67749;SDS011;54550;48.838;8.828;2023-08-20T13:28:32;574.37;;;522.83;;
67749;SDS011;54550;48.838;8.828;2023-08-20T13:30:57;7.53;;;3.40;;
67749;SDS011;54550;48.838;8.828;2023-08-20T13:33:24;6.73;;;4.57;;
67749;SDS011;54550;48.838;8.828;2023-08-20T13:35:49;5.47;;;3.40;;
67749;SDS011;54550;48.838;8.828;2023-08-20T13:38:17;8.00;;;3.80;;
67749;SDS011;54550;48.838;8.828;2023-08-20T13:40:42;9.40;;;4.20;;
67749;SDS011;54550;48.838;8.828;2023-08-20T13:43:08;6.53;;;3.87;;
67749;SDS011;54550;48.838;8.828;2023-08-20T13:45:34;75.63;;;69.57;;
67749;SDS011;54550;48.838;8.828;2023-08-20T13:47:59;67.20;;;62.00;;
67749;SDS011;54550;48.838;8.828;2023-08-20T13:50:25;6.23;;;3.63;;
67749;SDS011;54550;48.838;8.828;2023-08-20T13:52:51;5.10;;;3.33;;
67749;SDS011;54550;48.838;8.828;2023-08-20T13:55:16;6.60;;;3.30;;
67749;SDS011;54550;48.838;8.828;2023-08-20T13:57:42;3.70;;;3.30;;
67749;SDS011;54550;48.838;8.828;2023-08-20T14:00:07;5.77;;;3.80;;
67749;SDS011;54550;48.838;8.828;2023-08-20T14:02:37;5.43;;;3.60;;
67749;SDS011;54550;48.838;8.828;2023-08-20T14:05:03;5.53;;;3.77;;
67749;SDS011;54550;48.838;8.828;2023-08-20T14:07:29;6.53;;;3.37;;
67749;SDS011;54550;48.838;8.828;2023-08-20T14:09:55;5.60;;;3.20;;
67749;SDS011;54550;48.838;8.828;2023-08-20T14:12:20;6.47;;;3.73;;
67749;SDS011;54550;48.838;8.828;2023-08-20T14:14:46;4.60;;;3.60;;
67749;SDS011;54550;48.838;8.828;2023-08-20T14:17:11;6.27;;;3.43;;
67749;SDS011;54550;48.838;8.828;2023-08-20T14:19:37;4.90;;;3.33;;
67749;SDS011;54550;48.838;8.828;2023-08-20T14:22:02;16.90;;;3.40;;
67749;SDS011;54550;48.838;8.828;2023-08-20T14:24:28;3.93;;;3.47;;
67749;SDS011;54550;48.838;8.828;2023-08-20T14:26:54;7.67;;;3.50;;
67749;SDS011;54550;48.838;8.828;2023-08-20T14:29:19;5.03;;;3.60;;
67749;SDS011;54550;48.838;8.828;2023-08-20T14:31:45;7.57;;;3.70;;
67749;SDS011;54550;48.838;8.828;2023-08-20T14:34:11;6.93;;;3.20;;
67749;SDS011;54550;48.838;8.828;2023-08-20T14:36:36;3.10;;;2.77;;
67749;SDS011;54550;48.838;8.828;2023-08-20T14:39:02;6.60;;;3.17;;
67749;SDS011;54550;48.838;8.828;2023-08-20T14:41:30;7.17;;;2.70;;
67749;SDS011;54550;48.838;8.828;2023-08-20T14:43:56;4.10;;;2.83;;
67749;SDS011;54550;48.838;8.828;2023-08-20T14:46:21;5.17;;;3.00;;
67749;SDS011;54550;48.838;8.828;2023-08-20T14:48:47;17.47;;;3.97;;
67749;SDS011;54550;48.838;8.828;2023-08-20T14:51:13;810.43;;;736.03;;